createdAt,value
2018-09-08T00:00:13.852Z,566.3
2018-09-08T00:01:16.305Z,566.3
2018-09-08T00:02:18.785Z,566.3
2018-09-08T00:03:21.234Z,566.2
2018-09-08T00:04:23.673Z,566.1
2018-09-08T00:05:26.104Z,566.1
2018-09-08T00:06:28.553Z,566.1
2018-09-08T00:07:31.041Z,565.6
2018-09-08T00:08:33.475Z,565.7
2018-09-08T00:09:35.914Z,565.5
2018-09-08T00:10:38.344Z,565.6
2018-09-08T00:11:40.782Z,565.5
2018-09-08T00:12:43.226Z,565.5
2018-09-08T00:13:45.670Z,565.3
2018-09-08T00:14:48.103Z,565.1
2018-09-08T00:15:50.558Z,565.1
2018-09-08T00:16:52.995Z,565
2018-09-08T00:17:55.430Z,565.2
2018-09-08T00:18:57.881Z,565.2
2018-09-08T00:20:00.343Z,565.2
2018-09-08T00:21:02.777Z,565.4
2018-09-08T00:22:05.220Z,565.1
2018-09-08T00:23:07.649Z,565
2018-09-08T00:24:10.096Z,564.3
2018-09-08T00:25:12.537Z,564.3
2018-09-08T00:26:14.705Z,564
2018-09-08T00:27:17.128Z,564.2
2018-09-08T00:28:19.563Z,564.4
2018-09-08T00:29:22.002Z,564.2
2018-09-08T00:30:24.461Z,564.2
2018-09-08T00:31:26.904Z,564
2018-09-08T00:32:29.067Z,564.2
2018-09-08T00:33:31.499Z,564.8
2018-09-08T00:34:33.933Z,564.5
2018-09-08T00:35:36.367Z,564.6
2018-09-08T00:36:38.820Z,564.7
2018-09-08T00:37:41.278Z,564.4
2018-09-08T00:38:43.709Z,564.6
2018-09-08T00:39:46.152Z,564.4
2018-09-08T00:40:48.672Z,564.6
2018-09-08T00:41:51.102Z,564.6
2018-09-08T00:42:53.532Z,564.5
2018-09-08T00:43:55.964Z,564.7
2018-09-08T00:44:58.398Z,564.6
2018-09-08T00:46:01.089Z,564.8
2018-09-08T00:47:03.514Z,564.9
2018-09-08T00:48:05.970Z,564.8
2018-09-08T00:49:08.401Z,564.5
2018-09-08T00:50:10.841Z,564.9
2018-09-08T00:51:13.275Z,564.7
2018-09-08T00:52:15.453Z,564.6
2018-09-08T00:53:17.883Z,564.8
2018-09-08T00:54:20.344Z,565
2018-09-08T00:55:22.776Z,564.8
2018-09-08T00:56:25.200Z,565.1
2018-09-08T00:57:27.635Z,565
2018-09-08T00:58:30.069Z,564.9
2018-09-08T00:59:32.514Z,564.6
2018-09-08T01:00:34.950Z,564.1
2018-09-08T01:01:37.389Z,564
2018-09-08T01:02:39.852Z,563.3
2018-09-08T01:03:42.472Z,563.4
2018-09-08T01:04:44.896Z,563.2
2018-09-08T01:05:47.066Z,563.2
2018-09-08T01:06:49.491Z,563.4
2018-09-08T01:07:51.658Z,563.4
2018-09-08T01:08:54.080Z,563.4
2018-09-08T01:09:56.521Z,563.6
2018-09-08T01:10:58.965Z,563.4
2018-09-08T01:12:01.391Z,563.4
2018-09-08T01:13:03.811Z,563.3
2018-09-08T01:14:05.676Z,563.4
2018-09-08T01:15:07.828Z,563.3
2018-09-08T01:16:10.250Z,563.8
2018-09-08T01:17:12.694Z,563.7
2018-09-08T01:18:15.123Z,564.1
2018-09-08T01:19:17.560Z,563.9
2018-09-08T01:20:19.739Z,563.8
2018-09-08T01:21:22.164Z,563.8
2018-09-08T01:22:24.634Z,563.8
2018-09-08T01:23:27.079Z,563.9
2018-09-08T01:24:29.232Z,563.4
2018-09-08T01:25:31.662Z,563.9
2018-09-08T01:26:34.132Z,563.6
2018-09-08T01:27:36.573Z,563.5
2018-09-08T01:28:39.007Z,563.5
2018-09-08T01:29:41.435Z,563.2
2018-09-08T01:30:43.864Z,563.1
2018-09-08T01:31:46.306Z,563.6
2018-09-08T01:32:48.734Z,563.6
2018-09-08T01:33:51.184Z,563.3
2018-09-08T01:34:53.615Z,563.5
2018-09-08T01:35:56.047Z,563.6
2018-09-08T01:36:58.209Z,563.6
2018-09-08T01:38:00.654Z,563.6
2018-09-08T01:39:03.105Z,563.8
2018-09-08T01:40:05.544Z,563.5
2018-09-08T01:41:07.983Z,563.4
2018-09-08T01:42:10.427Z,563.5
2018-09-08T01:43:12.857Z,563.7
2018-09-08T01:44:15.318Z,563.3
2018-09-08T01:45:17.771Z,563.4
2018-09-08T01:46:20.202Z,563.1
2018-09-08T01:47:22.647Z,563.2
2018-09-08T01:48:25.085Z,562.9
2018-09-08T01:49:27.533Z,562.7
2018-09-08T01:50:29.690Z,562.5
2018-09-08T01:51:32.132Z,562.2
2018-09-08T01:52:34.581Z,562.4
2018-09-08T01:53:36.742Z,562.3
2018-09-08T01:54:38.904Z,562.5
2018-09-08T01:55:41.357Z,561.9
2018-09-08T01:56:43.783Z,562
2018-09-08T01:57:46.223Z,561.9
2018-09-08T01:58:48.672Z,561.8
2018-09-08T01:59:51.108Z,561.5
2018-09-08T02:00:53.546Z,561.6
2018-09-08T02:01:55.680Z,561.7
2018-09-08T02:02:57.858Z,561.3
2018-09-08T02:04:00.312Z,561.2
2018-09-08T02:05:02.749Z,560.7
2018-09-08T02:06:05.171Z,560.8
2018-09-08T02:07:07.620Z,560.7
2018-09-08T02:08:10.066Z,560.8
2018-09-08T02:09:12.498Z,560.6
2018-09-08T02:10:14.932Z,560.6
2018-09-08T02:11:17.366Z,560.7
2018-09-08T02:12:19.790Z,560.7
2018-09-08T02:13:22.235Z,561
2018-09-08T02:14:24.396Z,561
2018-09-08T02:15:26.815Z,560.6
2018-09-08T02:16:29.263Z,560.8
2018-09-08T02:17:31.695Z,560.9
2018-09-08T02:18:34.132Z,560.6
2018-09-08T02:19:36.303Z,560.6
2018-09-08T02:20:38.476Z,560.6
2018-09-08T02:21:40.915Z,560.4
2018-09-08T02:22:43.457Z,560.5
2018-09-08T02:23:45.911Z,560.3
2018-09-08T02:24:48.348Z,560.4
2018-09-08T02:25:50.785Z,560.5
2018-09-08T02:26:53.223Z,560.2
2018-09-08T02:27:55.654Z,560.4
2018-09-08T02:28:58.090Z,560.6
2018-09-08T02:30:00.522Z,560.4
2018-09-08T02:31:02.962Z,560.6
2018-09-08T02:32:05.412Z,560.2
2018-09-08T02:33:07.845Z,560.2
2018-09-08T02:34:10.009Z,560.3
2018-09-08T02:35:12.462Z,560.3
2018-09-08T02:36:14.902Z,559.9
2018-09-08T02:37:17.333Z,560.1
2018-09-08T02:38:19.766Z,559.9
2018-09-08T02:39:22.189Z,559.9
2018-09-08T02:40:24.613Z,559.8
2018-09-08T02:41:27.051Z,559.9
2018-09-08T02:42:29.505Z,560.1
2018-09-08T02:43:31.934Z,560.1
2018-09-08T02:44:34.359Z,560.5
2018-09-08T02:45:36.799Z,560.6
2018-09-08T02:46:38.953Z,560.6
2018-09-08T02:47:41.405Z,560.9
2018-09-08T02:48:43.853Z,561.2
2018-09-08T02:49:46.312Z,561.1
2018-09-08T02:50:48.449Z,560.8
2018-09-08T02:51:50.881Z,561.1
2018-09-08T02:52:53.025Z,560.8
2018-09-08T02:53:55.452Z,561
2018-09-08T02:54:57.873Z,561
2018-09-08T02:56:00.312Z,560.7
2018-09-08T02:57:02.754Z,560.5
2018-09-08T02:58:05.188Z,560.8
2018-09-08T02:59:07.357Z,560
2018-09-08T03:00:09.797Z,560.6
2018-09-08T03:01:12.236Z,560.3
2018-09-08T03:02:14.679Z,560.2
2018-09-08T03:03:17.100Z,560.4
2018-09-08T03:04:19.536Z,560.6
2018-09-08T03:05:21.973Z,560.3
2018-09-08T03:06:24.431Z,560.6
2018-09-08T03:07:26.863Z,560.4
2018-09-08T03:08:29.305Z,560.6
2018-09-08T03:09:31.499Z,560.1
2018-09-08T03:10:33.945Z,560.1
2018-09-08T03:11:36.375Z,559.8
2018-09-08T03:12:38.792Z,559.3
2018-09-08T03:13:40.963Z,559.7
2018-09-08T03:14:43.431Z,560.2
2018-09-08T03:15:45.945Z,560.5
2018-09-08T03:16:48.412Z,560.4
2018-09-08T03:17:50.848Z,560.7
2018-09-08T03:18:53.273Z,560.6
2018-09-08T03:19:55.714Z,560.3
2018-09-08T03:20:58.146Z,560.2
2018-09-08T03:22:00.574Z,560.3
2018-09-08T03:23:03.036Z,560.4
2018-09-08T03:24:05.475Z,560.6
2018-09-08T03:25:07.915Z,560.6
2018-09-08T03:26:10.344Z,560.1
2018-09-08T03:27:12.495Z,560.2
2018-09-08T03:28:14.925Z,560.5
2018-09-08T03:29:17.351Z,560.3
2018-09-08T03:30:19.777Z,560
2018-09-08T03:31:22.212Z,560
2018-09-08T03:32:24.668Z,560
2018-09-08T03:33:27.093Z,560.1
2018-09-08T03:34:29.522Z,560.1
2018-09-08T03:35:31.955Z,560.2
2018-09-08T03:36:34.145Z,560
2018-09-08T03:37:36.578Z,560
2018-09-08T03:38:38.759Z,559.8
2018-09-08T03:39:41.196Z,559.8
2018-09-08T03:40:43.631Z,559.3
2018-09-08T03:41:46.079Z,559.7
2018-09-08T03:42:48.253Z,559.7
2018-09-08T03:43:50.411Z,559.4
2018-09-08T03:44:52.844Z,559.5
2018-09-08T03:45:55.276Z,559.4
2018-09-08T03:46:57.698Z,559.5
2018-09-08T03:48:00.149Z,559.9
2018-09-08T03:49:02.580Z,559.7
2018-09-08T03:50:05.014Z,560
2018-09-08T03:51:07.444Z,559.8
2018-09-08T03:52:09.891Z,560
2018-09-08T03:53:12.324Z,559.8
2018-09-08T03:54:14.746Z,559.9
2018-09-08T03:55:17.182Z,560.4
2018-09-08T03:56:19.623Z,560.1
2018-09-08T03:57:22.057Z,560
2018-09-08T03:58:24.482Z,560.2
2018-09-08T03:59:26.914Z,560.1
2018-09-08T04:00:29.354Z,560.2
2018-09-08T04:01:31.796Z,560.5
2018-09-08T04:02:34.262Z,560.2
2018-09-08T04:03:36.694Z,560.6
2018-09-08T04:04:39.126Z,560.6
2018-09-08T04:05:41.966Z,560.3
2018-09-08T04:06:44.442Z,560.4
2018-09-08T04:07:46.865Z,560.3
2018-09-08T04:08:49.015Z,560.4
2018-09-08T04:09:51.438Z,560.5
2018-09-08T04:10:53.881Z,560.3
2018-09-08T04:11:56.307Z,560.3
2018-09-08T04:12:58.737Z,559.8
2018-09-08T04:14:00.904Z,559.8
2018-09-08T04:15:03.329Z,560
2018-09-08T04:16:05.754Z,559.9
2018-09-08T04:17:08.184Z,559.7
2018-09-08T04:18:11.024Z,559.8
2018-09-08T04:19:13.512Z,559.7
2018-09-08T04:20:15.940Z,559.4
2018-09-08T04:21:18.365Z,559.6
2018-09-08T04:22:20.805Z,559.4
2018-09-08T04:23:23.235Z,559.6
2018-09-08T04:24:25.684Z,559.5
2018-09-08T04:25:27.845Z,559.8
2018-09-08T04:26:30.298Z,559.5
2018-09-08T04:27:32.452Z,559.5
2018-09-08T04:28:34.894Z,559.1
2018-09-08T04:29:37.967Z,559.3
2018-09-08T04:30:40.481Z,558.8
2018-09-08T04:31:42.929Z,558.6
2018-09-08T04:32:45.362Z,558.5
2018-09-08T04:33:47.802Z,558.3
2018-09-08T04:34:50.217Z,558.3
2018-09-08T04:35:52.651Z,558.4
2018-09-08T04:36:55.083Z,557.8
2018-09-08T04:37:57.516Z,558
2018-09-08T04:38:59.675Z,557.8
2018-09-08T04:40:02.100Z,557.8
2018-09-08T04:41:04.957Z,558.1
2018-09-08T04:42:07.465Z,558
2018-09-08T04:43:09.901Z,557.9
2018-09-08T04:44:12.341Z,557.9
2018-09-08T04:45:14.780Z,558.2
2018-09-08T04:46:17.213Z,558.1
2018-09-08T04:47:19.644Z,558.2
2018-09-08T04:48:21.856Z,558.2
2018-09-08T04:49:24.271Z,558.2
2018-09-08T04:50:26.724Z,558.1
2018-09-08T04:51:29.154Z,558
2018-09-08T04:52:31.571Z,558.3
2018-09-08T04:53:34.013Z,558.6
2018-09-08T04:54:36.463Z,558
2018-09-08T04:55:38.897Z,558
2018-09-08T04:56:41.329Z,558
2018-09-08T04:57:43.754Z,557.5
2018-09-08T04:58:46.192Z,558
2018-09-08T04:59:48.633Z,557.8
2018-09-08T05:00:51.068Z,557.5
2018-09-08T05:01:53.501Z,557.3
2018-09-08T05:02:55.952Z,557.7
2018-09-08T05:03:58.388Z,557.6
2018-09-08T05:05:00.815Z,557.3
2018-09-08T05:06:03.253Z,557.2
2018-09-08T05:07:05.695Z,557.4
2018-09-08T05:08:08.163Z,557.1
2018-09-08T05:09:11.164Z,557.3
2018-09-08T05:10:13.698Z,557.2
2018-09-08T05:11:16.142Z,557.4
2018-09-08T05:12:18.595Z,557.3
2018-09-08T05:13:21.038Z,557.6
2018-09-08T05:14:23.485Z,557.7
2018-09-08T05:15:25.930Z,557.5
2018-09-08T05:16:28.354Z,557.2
2018-09-08T05:17:30.247Z,557.3
2018-09-08T05:18:32.675Z,557.1
2018-09-08T05:19:35.125Z,557
2018-09-08T05:20:37.552Z,556.6
2018-09-08T05:21:40.009Z,556.6
2018-09-08T05:22:42.446Z,556.7
2018-09-08T05:23:44.906Z,556.6
2018-09-08T05:24:47.352Z,556.5
2018-09-08T05:25:49.796Z,556.5
2018-09-08T05:26:52.242Z,556.5
2018-09-08T05:27:54.680Z,556.2
2018-09-08T05:28:57.107Z,556.4
2018-09-08T05:29:59.550Z,556.2
2018-09-08T05:31:01.978Z,556.1
2018-09-08T05:32:04.413Z,556
2018-09-08T05:33:06.854Z,556.2
2018-09-08T05:34:09.015Z,556.2
2018-09-08T05:35:11.593Z,556.4
2018-09-08T05:36:14.021Z,556.1
2018-09-08T05:37:16.466Z,556.3
2018-09-08T05:38:18.904Z,556.6
2018-09-08T05:39:21.336Z,556.6
2018-09-08T05:40:23.776Z,556.6
2018-09-08T05:41:26.221Z,556.6
2018-09-08T05:42:28.655Z,556.3
2018-09-08T05:43:31.086Z,556.8
2018-09-08T05:44:33.536Z,556.8
2018-09-08T05:45:35.977Z,556.6
2018-09-08T05:46:38.407Z,556.2
2018-09-08T05:47:40.843Z,556.2
2018-09-08T05:48:43.391Z,556.6
2018-09-08T05:49:45.493Z,556.3
2018-09-08T05:50:47.936Z,556.6
2018-09-08T05:51:50.382Z,556.2
2018-09-08T05:52:52.519Z,556.4
2018-09-08T05:53:54.962Z,556.4
2018-09-08T05:54:57.406Z,556.3
2018-09-08T05:55:59.825Z,556.2
2018-09-08T05:57:02.255Z,555.9
2018-09-08T05:58:04.677Z,556.3
2018-09-08T05:59:07.127Z,556.2
2018-09-08T06:00:09.557Z,556.3
2018-09-08T06:01:11.996Z,556.3
2018-09-08T06:02:14.458Z,555.9
2018-09-08T06:03:16.903Z,555.5
2018-09-08T06:04:19.076Z,556
2018-09-08T06:05:21.519Z,555.7
2018-09-08T06:06:23.944Z,555.6
2018-09-08T06:07:26.366Z,555.6
2018-09-08T06:08:28.791Z,555.6
2018-09-08T06:09:31.232Z,555.5
2018-09-08T06:10:33.686Z,555.5
2018-09-08T06:11:36.112Z,555.2
2018-09-08T06:12:38.573Z,555.3
2018-09-08T06:13:41.018Z,555.3
2018-09-08T06:14:43.490Z,555.2
2018-09-08T06:15:45.643Z,554.6
2018-09-08T06:16:48.075Z,554.9
2018-09-08T06:17:50.516Z,554.5
2018-09-08T06:18:52.976Z,554.3
2018-09-08T06:19:55.410Z,554.2
2018-09-08T06:20:57.836Z,554
2018-09-08T06:22:00.275Z,554.4
2018-09-08T06:23:02.707Z,553.9
2018-09-08T06:24:05.154Z,553.9
2018-09-08T06:25:07.603Z,554.1
2018-09-08T06:26:10.026Z,554.1
2018-09-08T06:27:12.463Z,553.7
2018-09-08T06:28:14.937Z,553.9
2018-09-08T06:29:17.367Z,553.7
2018-09-08T06:30:19.824Z,553.7
2018-09-08T06:31:22.257Z,553.8
2018-09-08T06:32:24.714Z,553.9
2018-09-08T06:33:27.455Z,553.7
2018-09-08T06:34:29.889Z,553.9
2018-09-08T06:35:32.351Z,553.8
2018-09-08T06:36:34.854Z,553.7
2018-09-08T06:37:37.010Z,553.9
2018-09-08T06:38:39.443Z,553.5
2018-09-08T06:39:41.881Z,553.6
2018-09-08T06:40:44.022Z,553.8
2018-09-08T06:41:46.466Z,553.6
2018-09-08T06:42:48.905Z,553.5
2018-09-08T06:43:51.334Z,553.3
2018-09-08T06:44:54.271Z,553.1
2018-09-08T06:45:56.781Z,552.8
2018-09-08T06:46:58.924Z,552.9
2018-09-08T06:48:01.363Z,553
2018-09-08T06:49:03.817Z,553.2
2018-09-08T06:50:06.265Z,552.9
2018-09-08T06:51:08.424Z,553.1
2018-09-08T06:52:11.105Z,552.6
2018-09-08T06:53:13.286Z,552.6
2018-09-08T06:54:15.735Z,553
2018-09-08T06:55:18.181Z,552.7
2018-09-08T06:56:20.618Z,552.6
2018-09-08T06:57:23.072Z,552.3
2018-09-08T06:58:25.296Z,552.4
2018-09-08T06:59:27.739Z,551.9
2018-09-08T07:00:30.165Z,551.9
2018-09-08T07:01:32.598Z,552.3
2018-09-08T07:02:35.052Z,552.2
2018-09-08T07:03:37.215Z,552.1
2018-09-08T07:04:39.667Z,551.9
2018-09-08T07:05:42.195Z,551.9
2018-09-08T07:06:44.635Z,551.7
2018-09-08T07:07:46.830Z,551.6
2018-09-08T07:08:49.265Z,551.8
2018-09-08T07:09:51.697Z,551.3
2018-09-08T07:10:54.144Z,551.6
2018-09-08T07:11:56.577Z,551.2
2018-09-08T07:12:59.011Z,551.5
2018-09-08T07:14:01.447Z,551.4
2018-09-08T07:15:04.089Z,551.6
2018-09-08T07:16:06.516Z,551.5
2018-09-08T07:17:08.958Z,551
2018-09-08T07:18:11.407Z,551.2
2018-09-08T07:19:13.834Z,551.1
2018-09-08T07:20:16.280Z,551.2
2018-09-08T07:21:18.725Z,551
2018-09-08T07:22:21.152Z,551.2
2018-09-08T07:23:23.574Z,551.2
2018-09-08T07:24:25.729Z,551.6
2018-09-08T07:25:28.182Z,551.3
2018-09-08T07:26:30.633Z,551.6
2018-09-08T07:27:32.793Z,551.2
2018-09-08T07:28:35.235Z,551.2
2018-09-08T07:29:37.102Z,551
2018-09-08T07:30:39.264Z,550.5
2018-09-08T07:31:41.448Z,550.2
2018-09-08T07:32:43.940Z,550.5
2018-09-08T07:33:46.423Z,550
2018-09-08T07:34:48.857Z,550
2018-09-08T07:35:51.292Z,550.5
2018-09-08T07:36:53.737Z,550.3
2018-09-08T07:37:56.206Z,549.9
2018-09-08T07:38:58.733Z,550
2018-09-08T07:40:01.185Z,550
2018-09-08T07:41:03.807Z,550.1
2018-09-08T07:42:06.246Z,549.9
2018-09-08T07:43:08.707Z,550.2
2018-09-08T07:44:10.888Z,550.1
2018-09-08T07:45:13.377Z,549.8
2018-09-08T07:46:15.823Z,549.8
2018-09-08T07:47:18.266Z,549.7
2018-09-08T07:48:20.743Z,549.8
2018-09-08T07:49:23.188Z,549.9
2018-09-08T07:50:25.622Z,549.6
2018-09-08T07:51:27.762Z,549.8
2018-09-08T07:52:30.201Z,549
2018-09-08T07:53:33.370Z,549
2018-09-08T07:54:35.802Z,549.3
2018-09-08T07:55:38.245Z,549.4
2018-09-08T07:56:40.680Z,548.9
2018-09-08T07:57:43.149Z,549
2018-09-08T07:58:45.584Z,549
2018-09-08T07:59:48.022Z,549
2018-09-08T08:00:50.453Z,548.8
2018-09-08T08:01:52.885Z,548.7
2018-09-08T08:02:55.335Z,548.6
2018-09-08T08:03:57.810Z,548.5
2018-09-08T08:04:59.963Z,548.5
2018-09-08T08:06:02.408Z,548.4
2018-09-08T08:07:04.585Z,548.1
2018-09-08T08:08:07.036Z,548
2018-09-08T08:09:09.497Z,548.3
2018-09-08T08:10:11.931Z,548.2
2018-09-08T08:11:14.385Z,548.4
2018-09-08T08:12:16.857Z,548.4
2018-09-08T08:13:19.314Z,548.3
2018-09-08T08:14:21.885Z,548.4
2018-09-08T08:15:24.386Z,548.2
2018-09-08T08:16:26.857Z,547.9
2018-09-08T08:17:29.295Z,547.8
2018-09-08T08:18:31.723Z,548.1
2018-09-08T08:19:33.865Z,547.7
2018-09-08T08:20:36.291Z,547.6
2018-09-08T08:21:38.718Z,547.6
2018-09-08T08:22:40.884Z,547.8
2018-09-08T08:23:43.318Z,547.4
2018-09-08T08:24:45.770Z,547.6
2018-09-08T08:25:48.205Z,547.7
2018-09-08T08:26:50.650Z,547.6
2018-09-08T08:27:53.093Z,547.5
2018-09-08T08:28:55.535Z,547.6
2018-09-08T08:29:57.982Z,547.6
2018-09-08T08:31:00.503Z,547.7
2018-09-08T08:32:02.946Z,548
2018-09-08T08:33:05.396Z,547.5
2018-09-08T08:34:07.862Z,547.4
2018-09-08T08:35:10.297Z,547.3
2018-09-08T08:36:12.760Z,547.1
2018-09-08T08:37:15.627Z,547.2
2018-09-08T08:38:18.127Z,547.1
2018-09-08T08:39:20.567Z,547.4
2018-09-08T08:40:22.760Z,547.5
2018-09-08T08:41:25.194Z,547.5
2018-09-08T08:42:27.635Z,547.3
2018-09-08T08:43:30.068Z,547.1
2018-09-08T08:44:32.511Z,547
2018-09-08T08:45:34.953Z,547
2018-09-08T08:46:37.121Z,547.2
2018-09-08T08:47:39.594Z,547.3
2018-09-08T08:48:42.058Z,547.4
2018-09-08T08:49:44.979Z,547.2
2018-09-08T08:50:47.411Z,547.4
2018-09-08T08:51:49.612Z,547.2
2018-09-08T08:52:52.053Z,547.3
2018-09-08T08:53:54.537Z,547
2018-09-08T08:54:56.972Z,547.5
2018-09-08T08:55:59.425Z,547.5
2018-09-08T08:57:01.858Z,547.4
2018-09-08T08:58:04.292Z,547.2
2018-09-08T08:59:06.723Z,547.1
2018-09-08T09:00:08.896Z,547.2
2018-09-08T09:01:11.343Z,547.1
2018-09-08T09:02:13.776Z,547.1
2018-09-08T09:03:16.232Z,547.3
2018-09-08T09:04:18.665Z,547.3
2018-09-08T09:05:21.085Z,546.9
2018-09-08T09:06:23.537Z,547.1
2018-09-08T09:07:25.966Z,546.9
2018-09-08T09:08:31.672Z,547.4
2018-09-08T09:09:34.291Z,547.4
2018-09-08T09:10:36.723Z,547.4
2018-09-08T09:11:40.264Z,547.5
2018-09-08T09:12:42.794Z,547.4
2018-09-08T09:13:45.236Z,547.8
2018-09-08T09:14:47.686Z,547.8
2018-09-08T09:15:50.123Z,547.9
2018-09-08T09:16:52.564Z,547.7
2018-09-08T09:17:54.741Z,547.9
2018-09-08T09:19:00.259Z,547.8
2018-09-08T09:20:02.839Z,548.2
2018-09-08T09:21:05.279Z,548.2
2018-09-08T09:22:07.728Z,548.2
2018-09-08T09:23:10.607Z,548.5
2018-09-08T09:24:13.591Z,548.3
2018-09-08T09:25:16.114Z,548.6
2018-09-08T09:26:18.553Z,548.4
2018-09-08T09:27:20.994Z,548.7
2018-09-08T09:28:23.447Z,548.7
2018-09-08T09:29:25.887Z,548.8
2018-09-08T09:30:28.328Z,548.6
2018-09-08T09:31:30.497Z,548.9
2018-09-08T09:32:32.955Z,548.8
2018-09-08T09:33:35.115Z,548.6
2018-09-08T09:34:37.563Z,549.1
2018-09-08T09:35:40.002Z,549.2
2018-09-08T09:36:42.452Z,549.7
2018-09-08T09:37:44.900Z,549.8
2018-09-08T09:38:47.333Z,549.7
2018-09-08T09:39:49.761Z,550.2
2018-09-08T09:40:52.212Z,550.1
2018-09-08T09:41:54.636Z,550.2
2018-09-08T09:42:57.113Z,550.1
2018-09-08T09:43:59.556Z,550.5
2018-09-08T09:45:01.741Z,550.3
2018-09-08T09:46:04.183Z,550.3
2018-09-08T09:47:06.617Z,550.5
2018-09-08T09:48:09.063Z,550.2
2018-09-08T09:49:11.508Z,550.2
2018-09-08T09:50:13.677Z,550.5
2018-09-08T09:51:16.140Z,550.2
2018-09-08T09:52:18.313Z,549.8
2018-09-08T09:53:20.795Z,550.2
2018-09-08T09:54:23.243Z,550.1
2018-09-08T09:55:25.673Z,550.4
2018-09-08T09:56:28.118Z,550.2
2018-09-08T09:57:30.554Z,550.4
2018-09-08T09:58:33.001Z,550.3
2018-09-08T09:59:35.449Z,550.6
2018-09-08T10:00:37.908Z,550.3
2018-09-08T10:01:40.346Z,550.3
2018-09-08T10:02:42.804Z,550.4
2018-09-08T10:03:45.240Z,550.7
2018-09-08T10:04:47.677Z,550.9
2018-09-08T10:05:50.127Z,550.7
2018-09-08T10:06:52.575Z,551
2018-09-08T10:07:55.006Z,551.1
2018-09-08T10:08:57.453Z,551.2
2018-09-08T10:09:59.913Z,551.1
2018-09-08T10:11:02.081Z,551.3
2018-09-08T10:12:04.833Z,551.2
2018-09-08T10:13:07.320Z,551.4
2018-09-08T10:14:09.457Z,551.6
2018-09-08T10:15:11.908Z,551.7
2018-09-08T10:16:14.365Z,551.5
2018-09-08T10:17:16.823Z,551.4
2018-09-08T10:18:19.268Z,551.9
2018-09-08T10:19:21.695Z,551.9
2018-09-08T10:20:24.160Z,551.5
2018-09-08T10:21:26.620Z,552.1
2018-09-08T10:22:29.053Z,551.7
2018-09-08T10:23:32.065Z,551.7
2018-09-08T10:24:34.597Z,551.8
2018-09-08T10:25:37.037Z,551.5
2018-09-08T10:26:39.467Z,551.5
2018-09-08T10:27:41.906Z,551.6
2018-09-08T10:28:44.077Z,552
2018-09-08T10:29:46.524Z,552
2018-09-08T10:30:48.983Z,551.9
2018-09-08T10:31:53.117Z,552.3
2018-09-08T10:32:55.559Z,552.2
2018-09-08T10:33:58.014Z,552.2
2018-09-08T10:35:00.181Z,552.8
2018-09-08T10:36:02.635Z,552.9
2018-09-08T10:37:05.070Z,552.6
2018-09-08T10:38:07.495Z,552.9
2018-09-08T10:39:09.937Z,552.7
2018-09-08T10:40:12.558Z,552.7
2018-09-08T10:41:14.996Z,552.9
2018-09-08T10:42:17.443Z,552.9
2018-09-08T10:43:19.871Z,553.5
2018-09-08T10:44:22.334Z,553.5
2018-09-08T10:45:24.771Z,553.4
2018-09-08T10:46:27.192Z,553.4
2018-09-08T10:47:29.634Z,553.5
2018-09-08T10:48:32.067Z,553.8
2018-09-08T10:49:34.498Z,553.4
2018-09-08T10:50:36.930Z,553.6
2018-09-08T10:51:39.372Z,553.3
2018-09-08T10:52:41.800Z,553.5
2018-09-08T10:53:44.235Z,553.7
2018-09-08T10:54:46.669Z,553.4
2018-09-08T10:55:49.125Z,553.6
2018-09-08T10:56:51.573Z,553.5
2018-09-08T10:57:54.072Z,553.3
2018-09-08T10:58:56.501Z,553.4
2018-09-08T10:59:58.950Z,553.4
2018-09-08T11:01:01.383Z,553.2
2018-09-08T11:02:05.934Z,553.3
2018-09-08T11:03:08.474Z,553
2018-09-08T11:04:10.912Z,553.1
2018-09-08T11:05:13.343Z,553.2
2018-09-08T11:06:15.795Z,553.3
2018-09-08T11:07:18.234Z,553.5
2018-09-08T11:08:20.666Z,553.5
2018-09-08T11:09:23.101Z,553.6
2018-09-08T11:10:25.546Z,553.4
2018-09-08T11:11:27.994Z,553.3
2018-09-08T11:12:30.163Z,553.6
2018-09-08T11:13:32.608Z,554
2018-09-08T11:14:35.044Z,553.8
2018-09-08T11:15:37.491Z,554.1
2018-09-08T11:16:39.919Z,554
2018-09-08T11:17:42.348Z,554.2
2018-09-08T11:18:44.907Z,554.3
2018-09-08T11:19:47.357Z,554.4
2018-09-08T11:20:49.799Z,554.5
2018-09-08T11:21:52.226Z,554.5
2018-09-08T11:22:54.670Z,554.6
2018-09-08T11:23:57.117Z,554.5
2018-09-08T11:24:59.567Z,554.7
2018-09-08T11:26:02.019Z,555
2018-09-08T11:27:04.486Z,554.6
2018-09-08T11:28:06.928Z,554.4
2018-09-08T11:29:09.359Z,554.2
2018-09-08T11:30:11.800Z,554.3
2018-09-08T11:31:14.247Z,554.5
2018-09-08T11:32:16.706Z,554.3
2018-09-08T11:33:19.140Z,554
2018-09-08T11:34:21.608Z,554.1
2018-09-08T11:35:24.065Z,553.9
2018-09-08T11:36:26.523Z,554.2
2018-09-08T11:37:28.955Z,553.9
2018-09-08T11:38:32.113Z,553.7
2018-09-08T11:39:34.583Z,553.9
2018-09-08T11:40:37.010Z,554
2018-09-08T11:41:39.500Z,553.7
2018-09-08T11:42:41.949Z,553.7
2018-09-08T11:43:44.377Z,553.7
2018-09-08T11:44:47.104Z,554
2018-09-08T11:45:49.547Z,554
2018-09-08T11:46:51.975Z,554.2
2018-09-08T11:47:54.412Z,554.4
2018-09-08T11:48:56.837Z,554.4
2018-09-08T11:49:59.318Z,555
2018-09-08T11:51:01.809Z,554.7
2018-09-08T11:52:04.268Z,554.8
2018-09-08T11:53:06.855Z,555.1
2018-09-08T11:54:09.300Z,554.7
2018-09-08T11:55:11.736Z,554.9
2018-09-08T11:56:14.261Z,555.4
2018-09-08T11:57:16.715Z,555.8
2018-09-08T11:58:19.155Z,555.8
2018-09-08T11:59:21.314Z,555.9
2018-09-08T12:00:23.751Z,556.4
2018-09-08T12:01:26.218Z,556.4
2018-09-08T12:02:28.648Z,556.4
2018-09-08T12:03:31.099Z,556.9
2018-09-08T12:04:33.526Z,556.5
2018-09-08T12:05:35.988Z,556.4
2018-09-08T12:06:38.447Z,556.7
2018-09-08T12:07:40.869Z,556.7
2018-09-08T12:08:43.294Z,556.6
2018-09-08T12:09:45.726Z,556.8
2018-09-08T12:10:47.949Z,556.5
2018-09-08T12:11:50.397Z,556.5
2018-09-08T12:12:52.869Z,556.8
2018-09-08T12:13:55.636Z,556.9
2018-09-08T12:14:58.070Z,556.7
2018-09-08T12:16:00.527Z,556.6
2018-09-08T12:17:02.956Z,557
2018-09-08T12:18:05.111Z,556.7
2018-09-08T12:19:07.984Z,556.7
2018-09-08T12:20:10.436Z,557.2
2018-09-08T12:21:12.879Z,557
2018-09-08T12:22:15.742Z,556.6
2018-09-08T12:23:18.174Z,556.8
2018-09-08T12:24:20.626Z,556.7
2018-09-08T12:25:22.797Z,556.8
2018-09-08T12:26:24.955Z,557
2018-09-08T12:27:27.484Z,557.1
2018-09-08T12:28:29.931Z,556.8
2018-09-08T12:29:32.419Z,557.3
2018-09-08T12:30:35.482Z,557.3
2018-09-08T12:31:37.955Z,557.2
2018-09-08T12:32:40.418Z,557.5
2018-09-08T12:33:42.588Z,557.6
2018-09-08T12:34:45.050Z,557.5
2018-09-08T12:35:47.490Z,557.6
2018-09-08T12:36:49.098Z,557.6
2018-09-08T12:37:51.539Z,557.7
2018-09-08T12:38:54.498Z,558
2018-09-08T12:39:56.950Z,557.6
2018-09-08T12:40:59.398Z,558
2018-09-08T12:42:01.858Z,558.2
2018-09-08T12:43:04.298Z,557.8
2018-09-08T12:44:06.742Z,557.8
2018-09-08T12:45:09.185Z,557.8
2018-09-08T12:46:11.624Z,558.1
2018-09-08T12:47:14.069Z,558.2
2018-09-08T12:48:16.514Z,557.6
2018-09-08T12:49:18.956Z,558.1
2018-09-08T12:50:21.397Z,557.8
2018-09-08T12:51:23.856Z,557.8
2018-09-08T12:52:26.290Z,557.8
2018-09-08T12:53:28.853Z,557.9
2018-09-08T12:54:31.367Z,558
2018-09-08T12:55:33.800Z,558.2
2018-09-08T12:56:36.244Z,558.7
2018-09-08T12:57:38.688Z,558.4
2018-09-08T12:58:41.126Z,558.5
2018-09-08T12:59:43.572Z,558.7
2018-09-08T13:00:46.009Z,558.6
2018-09-08T13:01:48.447Z,558.7
2018-09-08T13:02:50.879Z,559.1
2018-09-08T13:03:53.320Z,559
2018-09-08T13:04:55.747Z,559.1
2018-09-08T13:05:58.177Z,559.1
2018-09-08T13:07:00.631Z,558.7
2018-09-08T13:08:02.804Z,558.8
2018-09-08T13:09:05.344Z,559.2
2018-09-08T13:10:07.794Z,559.1
2018-09-08T13:11:10.251Z,559.5
2018-09-08T13:12:12.704Z,559.4
2018-09-08T13:13:15.147Z,560.1
2018-09-08T13:14:17.829Z,559.7
2018-09-08T13:15:20.306Z,559.9
2018-09-08T13:16:22.753Z,559.9
2018-09-08T13:17:25.183Z,559.9
2018-09-08T13:18:27.630Z,560.1
2018-09-08T13:19:30.083Z,559.9
2018-09-08T13:20:32.532Z,560.2
2018-09-08T13:21:34.972Z,560.1
2018-09-08T13:22:37.415Z,560.2
2018-09-08T13:23:39.556Z,560.4
2018-09-08T13:24:41.984Z,560.2
2018-09-08T13:25:44.416Z,560.2
2018-09-08T13:26:46.857Z,560.4
2018-09-08T13:27:49.028Z,560.5
2018-09-08T13:28:51.485Z,560.4